Time;durP1;ratioP1;P1;durP2;ratioP2;P2;SDS_P1;SDS_P2;PMS_P1;PMS_P2;Temp;Humidity;BMP_temperature;BMP_pressure;BME280_temperature;BME280_humidity;BME280_pressure;Samples;Min_cycle;Max_cycle;Signal;HPM_P1;HPM_P2
2023/05/30 00:00:50;;;;;;;13.65;4.38;;;11.40;99.90;;;;;;5011483;28;20405;-76
2023/05/30 00:03:17;;;;;;;11.60;3.67;;;11.40;99.90;;;;;;5011361;28;20052;-76
2023/05/30 00:05:43;;;;;;;12.68;3.45;;;11.40;99.90;;;;;;5013951;28;20101;-78
2023/05/30 00:08:09;;;;;;;13.55;5.18;;;11.40;99.90;;;;;;4999349;28;20042;-78
2023/05/30 00:10:34;;;;;;;10.75;3.47;;;11.40;99.90;;;;;;5017390;28;20073;-77
2023/05/30 00:13:00;;;;;;;23.40;4.68;;;11.40;99.90;;;;;;5014876;28;20049;-77
2023/05/30 00:15:26;;;;;;;12.02;4.07;;;11.40;99.90;;;;;;5013694;28;20041;-77
2023/05/30 00:17:52;;;;;;;22.25;4.22;;;11.40;99.90;;;;;;5013477;28;20125;-77
2023/05/30 00:20:22;;;;;;;8.13;3.20;;;11.40;99.90;;;;;;5013581;28;20177;-78
2023/05/30 00:22:48;;;;;;;15.27;3.78;;;11.30;99.90;;;;;;5013613;28;20053;-77
2023/05/30 00:25:14;;;;;;;12.35;3.35;;;11.30;99.90;;;;;;5013701;28;20120;-78
2023/05/30 00:27:40;;;;;;;16.75;3.30;;;11.30;99.90;;;;;;4997192;28;20042;-77
2023/05/30 00:30:06;;;;;;;11.50;3.42;;;11.30;99.90;;;;;;5015141;28;20041;-77
2023/05/30 00:32:33;;;;;;;13.13;4.20;;;11.30;99.90;;;;;;5013675;28;20045;-77
2023/05/30 00:34:59;;;;;;;10.02;3.30;;;11.30;99.90;;;;;;5013970;28;20132;-77
2023/05/30 00:37:25;;;;;;;7.43;3.40;;;11.30;99.90;;;;;;5013424;28;20121;-78
2023/05/30 00:39:51;;;;;;;8.73;3.28;;;11.30;99.90;;;;;;5014436;28;20042;-77
2023/05/30 00:42:16;;;;;;;8.93;3.45;;;11.30;99.90;;;;;;5014855;28;20045;-77
2023/05/30 00:44:42;;;;;;;12.77;3.40;;;11.30;99.90;;;;;;5013484;28;20058;-77
2023/05/30 00:47:08;;;;;;;9.10;3.65;;;11.30;99.90;;;;;;5013158;28;20077;-77
2023/05/30 00:49:34;;;;;;;12.73;3.80;;;11.30;99.90;;;;;;5014341;28;20445;-77
2023/05/30 00:52:01;;;;;;;9.70;4.18;;;11.30;99.90;;;;;;5012983;28;20096;-77
2023/05/30 00:54:26;;;;;;;11.05;3.75;;;11.40;99.90;;;;;;5014028;28;20044;-77
2023/05/30 00:56:53;;;;;;;8.68;3.22;;;11.40;99.90;;;;;;5014228;28;20030;-77
2023/05/30 00:59:18;;;;;;;7.30;3.50;;;11.40;99.90;;;;;;5012690;28;20092;-76
2023/05/30 01:01:45;;;;;;;8.20;3.40;;;11.30;99.90;;;;;;5012696;28;20038;-76
2023/05/30 01:04:10;;;;;;;12.60;3.40;;;11.30;99.90;;;;;;5012648;28;20046;-76
2023/05/30 01:06:39;;;;;;;10.50;3.45;;;11.30;99.90;;;;;;5013718;28;20036;-76
2023/05/30 01:09:06;;;;;;;9.80;3.03;;;11.30;99.90;;;;;;5013578;28;20046;-77
2023/05/30 01:11:52;;;;;;;12.95;3.63;;;11.30;99.90;;;;;;5012381;28;20073;-76
2023/05/30 01:14:45;;;;;;;10.70;3.78;;;11.30;99.90;;;;;;5012830;28;20037;-77
2023/05/30 01:17:36;;;;;;;10.95;3.13;;;11.20;99.90;;;;;;4996319;28;20053;-77
2023/05/30 01:20:13;;;;;;;9.55;2.72;;;11.20;99.90;;;;;;5013163;28;20037;-77
2023/05/30 01:23:08;;;;;;;11.00;3.15;;;11.20;99.90;;;;;;5012342;28;20199;-77
2023/05/30 01:26:02;;;;;;;10.55;3.03;;;11.20;99.90;;;;;;5012419;28;20045;-77
2023/05/30 01:28:32;;;;;;;10.23;3.75;;;11.20;99.90;;;;;;5013354;28;20104;-77
2023/05/30 01:30:59;;;;;;;11.05;3.25;;;11.20;99.90;;;;;;5012232;28;20497;-77
2023/05/30 01:33:26;;;;;;;11.10;3.58;;;11.30;99.90;;;;;;4995654;28;20042;-76
2023/05/30 01:35:52;;;;;;;9.38;3.38;;;11.20;99.90;;;;;;5011985;28;20113;-76
2023/05/30 01:38:18;;;;;;;10.40;3.80;;;11.20;99.90;;;;;;5013400;28;20142;-77
2023/05/30 01:40:51;;;;;;;10.60;3.60;;;11.30;99.90;;;;;;5012110;28;20456;-76
2023/05/30 01:43:44;;;;;;;11.70;3.90;;;11.20;99.90;;;;;;5012327;28;20082;-76
2023/05/30 01:46:31;;;;;;;15.30;3.97;;;11.20;99.90;;;;;;5012105;28;20565;-76
2023/05/30 01:48:59;;;;;;;9.35;3.45;;;11.20;99.90;;;;;;5012901;28;20548;-76
2023/05/30 01:52:08;;;;;;;11.82;3.15;;;11.20;99.90;;;;;;5011764;28;20165;-76
2023/05/30 01:54:35;;;;;;;10.40;5.00;;;11.20;99.90;;;;;;5012536;28;20096;-76
2023/05/30 01:57:07;;;;;;;10.50;3.55;;;11.20;99.90;;;;;;4995070;28;20053;-76
2023/05/30 01:59:34;;;;;;;19.30;4.25;;;11.10;99.90;;;;;;5011872;28;20379;-76
2023/05/30 02:02:01;;;;;;;9.68;3.42;;;11.10;99.90;;;;;;5011632;28;20034;-76
2023/05/30 02:04:27;;;;;;;11.25;4.00;;;11.20;99.90;;;;;;5012789;28;20406;-76
2023/05/30 02:06:52;;;;;;;10.27;3.25;;;11.20;99.90;;;;;;5011103;28;20034;-77
2023/05/30 02:09:18;;;;;;;10.27;3.50;;;11.10;99.90;;;;;;5011534;28;20061;-77
2023/05/30 02:11:43;;;;;;;8.82;3.45;;;11.20;99.90;;;;;;4994959;28;20058;-77
2023/05/30 02:14:09;;;;;;;10.15;4.22;;;11.20;99.90;;;;;;5011436;28;20042;-77
2023/05/30 02:16:35;;;;;;;15.55;4.70;;;11.20;99.90;;;;;;5011409;28;20041;-77
2023/05/30 02:19:00;;;;;;;9.98;3.63;;;11.20;99.90;;;;;;5011557;28;20045;-77
2023/05/30 02:21:26;;;;;;;13.40;3.72;;;11.20;99.90;;;;;;5011481;28;20041;-77
2023/05/30 02:23:53;;;;;;;10.77;3.53;;;11.20;99.90;;;;;;5010976;28;20513;-77
2023/05/30 02:26:18;;;;;;;14.05;4.45;;;11.20;99.90;;;;;;5011170;28;20056;-77
2023/05/30 02:28:44;;;;;;;9.15;3.90;;;11.20;99.90;;;;;;5012519;28;20046;-78
2023/05/30 02:31:10;;;;;;;13.50;3.53;;;11.20;99.90;;;;;;5015483;28;20070;-79
2023/05/30 02:33:35;;;;;;;12.85;4.20;;;11.20;99.90;;;;;;5014565;28;20037;-77
2023/05/30 02:36:01;;;;;;;14.63;4.70;;;11.20;99.90;;;;;;5009150;28;20409;-77
2023/05/30 02:38:26;;;;;;;10.77;3.42;;;11.20;99.90;;;;;;5010166;28;20052;-77
2023/05/30 02:40:52;;;;;;;9.15;3.78;;;11.20;99.90;;;;;;5011075;28;20037;-77
2023/05/30 02:43:19;;;;;;;8.52;3.67;;;11.20;99.90;;;;;;5010813;28;20452;-77
2023/05/30 02:45:45;;;;;;;9.27;3.78;;;11.20;99.90;;;;;;5011101;28;20073;-77
2023/05/30 02:48:11;;;;;;;12.88;4.50;;;11.20;99.90;;;;;;5011997;28;20038;-77
2023/05/30 02:50:36;;;;;;;13.57;4.18;;;11.30;99.90;;;;;;5010854;28;20036;-77
2023/05/30 02:53:02;;;;;;;13.90;4.68;;;11.20;99.90;;;;;;5010731;28;20116;-77
2023/05/30 02:55:27;;;;;;;13.73;4.30;;;11.20;99.90;;;;;;5012056;28;20034;-77
2023/05/30 02:57:53;;;;;;;12.02;4.75;;;11.20;99.90;;;;;;5012049;28;20045;-77
2023/05/30 03:00:20;;;;;;;13.60;4.82;;;11.20;99.90;;;;;;4994358;28;20081;-77
2023/05/30 03:02:46;;;;;;;12.52;5.00;;;11.10;99.90;;;;;;5010665;28;20046;-77
2023/05/30 03:05:12;;;;;;;16.40;3.75;;;11.20;99.90;;;;;;5010668;28;20066;-77
2023/05/30 03:07:37;;;;;;;10.05;3.47;;;11.20;99.90;;;;;;5011711;28;20074;-76
2023/05/30 03:10:04;;;;;;;12.48;4.05;;;11.10;99.90;;;;;;5012003;28;20113;-77
2023/05/30 03:12:30;;;;;;;11.90;3.80;;;11.20;99.90;;;;;;5011774;28;20046;-77
2023/05/30 03:14:55;;;;;;;12.80;4.25;;;11.20;99.90;;;;;;5010677;28;20123;-76
2023/05/30 03:17:22;;;;;;;16.55;4.53;;;11.20;99.90;;;;;;5009890;28;20069;-77
2023/05/30 03:19:47;;;;;;;10.05;3.90;;;11.20;99.90;;;;;;5011808;28;20413;-77
2023/05/30 03:22:13;;;;;;;13.95;4.82;;;11.30;99.90;;;;;;5010569;28;20121;-77
2023/05/30 03:24:39;;;;;;;8.68;3.88;;;11.20;99.90;;;;;;5011999;28;20041;-76
2023/05/30 03:27:07;;;;;;;13.30;5.53;;;11.30;99.90;;;;;;5010483;28;20077;-77
2023/05/30 03:29:32;;;;;;;13.52;4.25;;;11.30;99.90;;;;;;5011661;28;20038;-77
2023/05/30 03:31:58;;;;;;;12.93;4.50;;;11.30;99.90;;;;;;5010445;28;20083;-77
2023/05/30 03:34:24;;;;;;;11.73;4.25;;;11.30;99.90;;;;;;5011697;28;20402;-77
2023/05/30 03:36:52;;;;;;;13.43;4.10;;;11.30;99.90;;;;;;4993879;28;20069;-76
2023/05/30 03:39:19;;;;;;;14.98;4.47;;;11.30;99.90;;;;;;5026629;28;20115;-77
2023/05/30 03:41:45;;;;;;;13.20;3.90;;;11.30;99.90;;;;;;5010617;28;20111;-77
2023/05/30 03:44:10;;;;;;;14.02;4.00;;;11.30;99.90;;;;;;5011370;28;20120;-77
2023/05/30 03:46:36;;;;;;;13.15;4.40;;;11.30;99.90;;;;;;5015366;28;20045;-77
2023/05/30 03:49:01;;;;;;;14.25;4.80;;;11.30;99.90;;;;;;5015189;28;20033;-77
2023/05/30 03:51:27;;;;;;;12.48;4.05;;;11.30;99.90;;;;;;5014310;28;20150;-77
2023/05/30 03:53:53;;;;;;;13.95;3.90;;;11.30;99.90;;;;;;5013997;28;20185;-77
2023/05/30 03:56:18;;;;;;;10.13;3.97;;;11.30;99.90;;;;;;5015437;28;20034;-77
2023/05/30 03:58:44;;;;;;;13.38;3.45;;;11.30;99.90;;;;;;5015258;28;20046;-77
2023/05/30 04:01:10;;;;;;;18.38;4.40;;;11.30;99.90;;;;;;5015291;28;20045;-76
2023/05/30 04:03:37;;;;;;;12.88;3.88;;;11.30;99.90;;;;;;5013881;28;20565;-76
2023/05/30 04:06:05;;;;;;;9.93;3.90;;;11.40;99.90;;;;;;5013686;28;20049;-76
2023/05/30 04:08:31;;;;;;;12.80;3.83;;;11.30;99.90;;;;;;5013385;28;20414;-77
2023/05/30 04:10:56;;;;;;;12.38;4.10;;;11.40;99.90;;;;;;5013733;28;20030;-76
2023/05/30 04:13:22;;;;;;;11.20;4.80;;;11.40;99.90;;;;;;5013356;28;20595;-77
2023/05/30 04:15:47;;;;;;;16.48;4.20;;;11.40;99.90;;;;;;5013576;28;20413;-76
2023/05/30 04:18:13;;;;;;;13.82;3.88;;;11.40;99.90;;;;;;5013265;28;20042;-77
2023/05/30 04:20:38;;;;;;;13.48;3.88;;;11.40;99.90;;;;;;5014615;28;20050;-76
2023/05/30 04:23:04;;;;;;;14.27;4.18;;;11.40;99.90;;;;;;5013595;28;20042;-77
2023/05/30 04:25:30;;;;;;;14.50;3.60;;;11.40;99.90;;;;;;5014820;28;20108;-77
2023/05/30 04:27:56;;;;;;;14.88;4.10;;;11.40;99.90;;;;;;5014450;28;20044;-77
2023/05/30 04:30:22;;;;;;;11.75;3.85;;;11.50;99.90;;;;;;5013784;28;20034;-76
2023/05/30 04:32:48;;;;;;;13.23;3.90;;;11.50;99.90;;;;;;5014565;28;20045;-76
2023/05/30 04:35:14;;;;;;;12.60;4.05;;;11.50;99.90;;;;;;4997262;28;20057;-76
2023/05/30 04:37:43;;;;;;;12.65;3.33;;;11.50;99.90;;;;;;5013203;28;20561;-76
2023/05/30 04:40:12;;;;;;;10.90;3.47;;;11.60;99.90;;;;;;5016514;28;20588;-78
2023/05/30 04:42:40;;;;;;;12.32;3.85;;;11.60;99.90;;;;;;5015870;28;20041;-78
2023/05/30 04:45:06;;;;;;;13.23;4.55;;;11.60;99.90;;;;;;5016599;28;20085;-77
2023/05/30 04:47:33;;;;;;;12.85;4.15;;;11.50;99.90;;;;;;5014026;28;20081;-76
2023/05/30 04:50:00;;;;;;;14.50;3.80;;;11.60;99.90;;;;;;5014435;28;20449;-76
2023/05/30 04:52:26;;;;;;;13.20;4.70;;;11.60;99.90;;;;;;4996713;28;20045;-77
2023/05/30 04:54:52;;;;;;;9.77;4.57;;;11.60;99.90;;;;;;5013211;28;20073;-76
2023/05/30 04:57:18;;;;;;;12.90;3.90;;;11.60;99.90;;;;;;5013266;28;20437;-75
2023/05/30 04:59:44;;;;;;;13.07;4.00;;;11.60;99.90;;;;;;5013987;28;20113;-75
2023/05/30 05:02:10;;;;;;;8.93;3.70;;;11.60;99.90;;;;;;5012637;28;20545;-75
2023/05/30 05:04:36;;;;;;;10.55;3.53;;;11.60;99.90;;;;;;5013923;28;20049;-75
2023/05/30 05:07:02;;;;;;;11.23;4.32;;;11.60;99.90;;;;;;5012470;28;20045;-75
2023/05/30 05:09:27;;;;;;;13.30;4.40;;;11.60;99.90;;;;;;5012371;28;20049;-75
2023/05/30 05:11:54;;;;;;;15.63;5.03;;;11.70;99.90;;;;;;5013790;28;20041;-75
2023/05/30 05:14:19;;;;;;;12.15;4.15;;;11.70;99.90;;;;;;5012621;28;20080;-74
2023/05/30 05:16:45;;;;;;;18.55;4.43;;;11.60;99.90;;;;;;5012265;28;20080;-75
2023/05/30 05:19:11;;;;;;;11.35;4.10;;;11.60;99.90;;;;;;5012641;28;20053;-75
2023/05/30 05:21:36;;;;;;;9.80;3.83;;;11.70;99.90;;;;;;5013813;28;20587;-75
2023/05/30 05:24:03;;;;;;;8.00;3.45;;;11.70;99.90;;;;;;5012542;28;20053;-75
2023/05/30 05:26:31;;;;;;;9.70;3.55;;;11.70;99.90;;;;;;5013533;28;20042;-75
2023/05/30 05:28:57;;;;;;;11.05;4.82;;;11.70;99.90;;;;;;5012090;28;20049;-75
2023/05/30 05:31:23;;;;;;;14.30;3.90;;;11.70;99.90;;;;;;5013308;28;20225;-75
2023/05/30 05:33:48;;;;;;;9.82;3.45;;;11.70;99.90;;;;;;5013508;28;20062;-77
2023/05/30 05:36:14;;;;;;;12.43;4.03;;;11.70;99.90;;;;;;5013411;28;20052;-75
2023/05/30 05:38:40;;;;;;;8.80;4.30;;;11.70;99.90;;;;;;5011920;28;20206;-75
2023/05/30 05:41:06;;;;;;;10.38;3.70;;;11.70;99.90;;;;;;5011736;28;20077;-74
2023/05/30 05:43:31;;;;;;;9.32;3.95;;;11.70;99.90;;;;;;5012114;28;20042;-75
2023/05/30 05:45:57;;;;;;;12.15;4.55;;;11.70;99.90;;;;;;5011996;28;20048;-75
2023/05/30 05:48:23;;;;;;;12.00;3.80;;;11.70;99.90;;;;;;5011967;28;20053;-77
2023/05/30 05:50:48;;;;;;;11.07;3.42;;;11.70;99.90;;;;;;5012843;28;20044;-72
2023/05/30 05:53:14;;;;;;;8.30;3.03;;;11.70;99.90;;;;;;4994998;28;20030;-72
2023/05/30 05:55:39;;;;;;;7.32;2.85;;;11.70;99.90;;;;;;5013049;28;20038;-73
2023/05/30 05:58:05;;;;;;;9.52;3.45;;;11.80;99.90;;;;;;5012597;28;20041;-72
2023/05/30 06:00:31;;;;;;;7.18;3.30;;;11.80;99.90;;;;;;5011546;28;20042;-72
2023/05/30 06:02:57;;;;;;;10.68;3.30;;;11.80;99.90;;;;;;5011684;28;20042;-73
2023/05/30 06:05:23;;;;;;;7.55;2.88;;;11.90;99.90;;;;;;5011713;28;20049;-73
2023/05/30 06:07:48;;;;;;;6.90;3.50;;;11.90;99.90;;;;;;5010922;28;20061;-72
2023/05/30 06:10:14;;;;;;;9.80;3.60;;;11.90;99.90;;;;;;5012780;28;20048;-73
2023/05/30 06:12:40;;;;;;;8.70;3.28;;;12.00;99.90;;;;;;4994918;28;20121;-74
2023/05/30 06:15:06;;;;;;;9.02;3.17;;;12.00;99.90;;;;;;5009153;28;20064;-74
2023/05/30 06:17:32;;;;;;;8.73;3.38;;;11.90;99.90;;;;;;5012328;28;20038;-74
2023/05/30 06:19:58;;;;;;;9.68;4.00;;;11.90;99.90;;;;;;5011077;28;20100;-74
2023/05/30 06:22:23;;;;;;;11.02;2.90;;;11.90;99.90;;;;;;5011226;28;20133;-74
2023/05/30 06:24:49;;;;;;;15.77;4.00;;;11.90;99.90;;;;;;5012222;28;20053;-73
2023/05/30 06:27:15;;;;;;;9.07;2.97;;;11.90;99.90;;;;;;5012127;28;20041;-73
2023/05/30 06:29:41;;;;;;;11.07;2.92;;;11.80;99.90;;;;;;5012085;28;20033;-73
2023/05/30 06:32:10;;;;;;;7.82;2.72;;;11.80;99.90;;;;;;5012108;28;20041;-73
2023/05/30 06:34:35;;;;;;;8.10;3.03;;;11.90;99.90;;;;;;5011163;28;20069;-74
2023/05/30 06:37:01;;;;;;;10.05;3.30;;;11.90;99.90;;;;;;5012030;28;20073;-74
2023/05/30 06:39:27;;;;;;;14.90;3.63;;;11.80;99.90;;;;;;5012147;28;20034;-74
2023/05/30 06:41:53;;;;;;;6.32;2.75;;;11.90;99.90;;;;;;5010739;28;20073;-74
2023/05/30 06:44:18;;;;;;;9.73;3.00;;;11.90;99.90;;;;;;4994673;28;20613;-74
2023/05/30 06:46:44;;;;;;;9.82;3.25;;;11.90;99.90;;;;;;5010526;28;20052;-74
2023/05/30 06:49:10;;;;;;;12.90;4.18;;;11.90;99.90;;;;;;5010539;28;20030;-75
2023/05/30 06:51:36;;;;;;;6.80;2.95;;;11.90;99.90;;;;;;5010747;28;20501;-73
2023/05/30 06:54:02;;;;;;;11.07;3.28;;;12.00;99.90;;;;;;5012069;28;20030;-73
2023/05/30 06:56:28;;;;;;;9.45;2.47;;;12.00;99.90;;;;;;5011661;28;20068;-73
2023/05/30 06:58:54;;;;;;;8.05;2.70;;;12.00;99.90;;;;;;5011634;28;20041;-72
2023/05/30 07:01:20;;;;;;;9.15;2.65;;;12.10;99.90;;;;;;5011990;28;20498;-73
2023/05/30 07:03:46;;;;;;;7.47;2.50;;;12.10;99.90;;;;;;5010834;28;20042;-73
2023/05/30 07:06:12;;;;;;;6.20;2.45;;;12.10;99.90;;;;;;5012023;28;20042;-73
2023/05/30 07:08:38;;;;;;;5.47;2.35;;;12.10;99.90;;;;;;5010599;28;20046;-74
2023/05/30 07:11:06;;;;;;;6.38;2.42;;;12.10;99.90;;;;;;5011989;28;20080;-73
2023/05/30 07:13:31;;;;;;;3.92;2.03;;;12.00;99.90;;;;;;5011669;28;20061;-72
2023/05/30 07:15:57;;;;;;;5.03;2.10;;;12.00;99.90;;;;;;5010718;28;20064;-75
2023/05/30 07:18:22;;;;;;;7.22;2.30;;;11.90;99.90;;;;;;5010495;28;20529;-75
2023/05/30 07:20:48;;;;;;;5.25;2.35;;;11.90;99.90;;;;;;5014730;28;20050;-75
2023/05/30 07:23:14;;;;;;;5.70;1.90;;;11.90;99.90;;;;;;5014614;28;20049;-75
2023/05/30 07:25:40;;;;;;;4.15;2.45;;;12.00;99.90;;;;;;5015918;28;20034;-75
2023/05/30 07:28:06;;;;;;;3.40;1.80;;;12.00;99.90;;;;;;5014351;28;20045;-75
2023/05/30 07:30:31;;;;;;;4.05;1.95;;;12.10;99.90;;;;;;5014457;28;20084;-74
2023/05/30 07:32:57;;;;;;;4.88;1.95;;;12.10;99.90;;;;;;4998411;28;20034;-74
2023/05/30 07:35:23;;;;;;;4.22;1.60;;;12.10;99.90;;;;;;5015842;28;20038;-73
2023/05/30 07:37:52;;;;;;;4.25;1.55;;;12.20;99.90;;;;;;5014337;28;20146;-73
2023/05/30 07:40:18;;;;;;;3.35;1.77;;;12.20;99.90;;;;;;4998214;28;20049;-73
2023/05/30 07:42:44;;;;;;;6.95;2.13;;;12.20;99.90;;;;;;5014103;28;20042;-72
2023/05/30 07:45:10;;;;;;;5.30;2.00;;;12.20;99.90;;;;;;5015708;28;20038;-74
2023/05/30 07:47:36;;;;;;;4.78;1.60;;;12.20;99.90;;;;;;5015543;28;20091;-73
2023/05/30 07:50:01;;;;;;;6.90;2.13;;;12.30;99.90;;;;;;5015286;28;20040;-73
2023/05/30 07:52:27;;;;;;;5.35;1.88;;;12.30;99.90;;;;;;5015413;28;20048;-73
2023/05/30 07:54:52;;;;;;;4.35;2.10;;;12.40;99.90;;;;;;5015363;28;20042;-73
2023/05/30 07:57:18;;;;;;;2.65;1.65;;;12.40;99.90;;;;;;5015166;28;20065;-73
2023/05/30 07:59:44;;;;;;;6.28;1.92;;;12.40;99.90;;;;;;5013822;28;20120;-73
2023/05/30 08:02:09;;;;;;;5.13;2.30;;;12.50;99.90;;;;;;5013879;28;20046;-73
2023/05/30 08:04:36;;;;;;;3.45;2.33;;;12.50;99.90;;;;;;5014222;28;20052;-73
2023/05/30 08:07:03;;;;;;;3.00;2.00;;;12.60;99.90;;;;;;5013700;28;20502;-73
2023/05/30 08:09:29;;;;;;;6.43;2.22;;;12.60;99.90;;;;;;5014865;28;20576;-73
2023/05/30 08:11:54;;;;;;;7.75;2.85;;;12.50;99.90;;;;;;5008816;28;20116;-73
2023/05/30 08:14:20;;;;;;;5.50;2.13;;;12.60;99.90;;;;;;5013456;28;20121;-73
2023/05/30 08:16:46;;;;;;;4.10;2.10;;;12.60;99.90;;;;;;5010777;28;20124;-73
2023/05/30 08:19:12;;;;;;;5.22;2.47;;;12.50;99.90;;;;;;5009545;28;20042;-73
2023/05/30 08:21:38;;;;;;;3.88;2.17;;;12.60;99.90;;;;;;5013603;28;20636;-73
2023/05/30 08:24:04;;;;;;;3.58;1.92;;;12.50;99.90;;;;;;5014832;28;20049;-73
2023/05/30 08:26:30;;;;;;;4.70;2.72;;;12.40;99.90;;;;;;5013687;28;20053;-73
2023/05/30 08:28:56;;;;;;;5.43;2.05;;;12.60;99.90;;;;;;4997098;28;20034;-73
2023/05/30 08:31:22;;;;;;;4.55;2.38;;;12.60;99.90;;;;;;5014321;28;20041;-74
2023/05/30 08:33:47;;;;;;;8.25;2.10;;;12.50;99.90;;;;;;5013672;28;20121;-74
2023/05/30 08:36:13;;;;;;;3.10;1.50;;;12.60;99.90;;;;;;4996929;28;20042;-73
2023/05/30 08:38:38;;;;;;;8.73;2.20;;;12.60;99.90;;;;;;5014024;28;20073;-78
2023/05/30 08:41:04;;;;;;;4.35;1.60;;;12.60;99.90;;;;;;5016179;28;20121;-79
2023/05/30 08:43:30;;;;;;;3.90;1.48;;;12.90;99.90;;;;;;5021565;28;20040;-78
2023/05/30 08:45:57;;;;;;;4.07;1.67;;;13.10;99.90;;;;;;5014616;28;20461;-78
2023/05/30 08:48:25;;;;;;;5.70;1.48;;;13.00;99.90;;;;;;5018144;28;20045;-79
2023/05/30 08:50:52;;;;;;;5.25;1.80;;;13.20;99.90;;;;;;5015708;28;20045;-78
2023/05/30 08:53:25;;;;;;;3.08;1.75;;;13.20;99.90;;;;;;5013812;28;20413;-77
2023/05/30 08:56:11;;;;;;;5.40;1.40;;;13.30;99.90;;;;;;5014400;28;20081;-78
2023/05/30 08:58:41;;;;;;;1.90;0.90;;;13.30;99.90;;;;;;5014980;28;20045;-77
2023/05/30 09:01:09;;;;;;;0.93;0.88;;;13.30;99.90;;;;;;5016596;28;20042;-79
2023/05/30 09:03:39;;;;;;;2.70;0.73;;;13.30;99.90;;;;;;5016540;28;20073;-80
2023/05/30 09:06:07;;;;;;;3.83;1.00;;;13.40;99.90;;;;;;5017495;28;20518;-78
2023/05/30 09:08:33;;;;;;;4.43;1.08;;;13.60;99.90;;;;;;5018626;28;20085;-78
2023/05/30 09:10:59;;;;;;;2.15;1.33;;;13.60;99.90;;;;;;5014975;28;20625;-79
2023/05/30 09:13:25;;;;;;;2.67;1.08;;;13.40;99.90;;;;;;5014321;28;20038;-79
2023/05/30 09:15:51;;;;;;;1.40;0.90;;;13.70;99.90;;;;;;5012023;28;20038;-79
2023/05/30 09:18:17;;;;;;;1.55;0.85;;;13.80;99.90;;;;;;5017519;28;20042;-79
2023/05/30 09:20:43;;;;;;;2.13;0.93;;;14.00;99.90;;;;;;5016399;28;20093;-77
2023/05/30 09:23:09;;;;;;;2.03;0.82;;;14.20;99.90;;;;;;5013695;28;20042;-78
2023/05/30 09:25:51;;;;;;;0.70;0.52;;;14.50;99.90;;;;;;5001042;28;20049;-78
2023/05/30 09:28:28;;;;;;;3.38;1.10;;;15.30;99.90;;;;;;5017571;28;20045;-79
2023/05/30 09:30:58;;;;;;;1.67;0.75;;;15.40;99.90;;;;;;5019663;28;20030;-78
2023/05/30 09:33:39;;;;;;;1.77;0.80;;;15.50;99.90;;;;;;5014309;28;20038;-79
2023/05/30 09:36:05;;;;;;;0.95;0.70;;;15.00;99.90;;;;;;5014111;28;20029;-78
2023/05/30 09:38:31;;;;;;;1.30;0.90;;;14.70;99.90;;;;;;5013670;28;20121;-78
2023/05/30 09:41:01;;;;;;;1.33;0.82;;;14.30;99.90;;;;;;5012345;28;20045;-79
2023/05/30 09:43:32;;;;;;;0.90;0.50;;;14.30;99.90;;;;;;5013883;28;20081;-79
2023/05/30 09:46:05;;;;;;;1.30;0.80;;;14.20;99.90;;;;;;5012681;28;20046;-78
2023/05/30 09:48:32;;;;;;;2.13;0.80;;;14.10;99.90;;;;;;4998128;28;20038;-78
2023/05/30 09:51:02;;;;;;;1.60;0.95;;;13.80;99.90;;;;;;5012952;28;20042;-78
2023/05/30 09:53:33;;;;;;;1.60;0.63;;;13.90;99.90;;;;;;5012000;28;20072;-79
2023/05/30 09:56:01;;;;;;;2.88;0.68;;;14.00;99.90;;;;;;5012951;28;20034;-78
2023/05/30 09:58:26;;;;;;;6.72;1.05;;;14.00;99.90;;;;;;5012737;28;20045;-77
2023/05/30 10:00:54;;;;;;;2.65;0.60;;;14.10;99.90;;;;;;5015917;28;20041;-76
2023/05/30 10:03:21;;;;;;;0.52;0.50;;;13.90;99.90;;;;;;5015495;28;20135;-78
2023/05/30 10:05:47;;;;;;;1.27;0.60;;;14.00;99.90;;;;;;5016974;28;20073;-78
2023/05/30 10:08:14;;;;;;;1.58;0.85;;;14.00;99.90;;;;;;5020334;28;20125;-79
2023/05/30 10:10:41;;;;;;;1.88;0.80;;;14.20;99.90;;;;;;5020043;28;20073;-80
2023/05/30 10:13:06;;;;;;;1.40;0.77;;;14.40;99.90;;;;;;5021350;28;20058;-80
2023/05/30 10:15:32;;;;;;;3.05;1.00;;;14.30;99.90;;;;;;5017089;28;20133;-80
2023/05/30 10:18:09;;;;;;;2.22;0.88;;;14.20;99.90;;;;;;5023251;28;20072;-81
2023/05/30 10:20:38;;;;;;;2.20;0.70;;;14.20;99.90;;;;;;5024756;28;20045;-81
2023/05/30 10:23:07;;;;;;;1.98;0.93;;;14.20;99.90;;;;;;5020012;28;20049;-74
2023/05/30 10:25:36;;;;;;;1.55;1.10;;;14.10;99.90;;;;;;5010963;28;20037;-74
2023/05/30 10:28:03;;;;;;;2.65;0.80;;;13.80;99.90;;;;;;5009084;28;20050;-74
2023/05/30 10:30:32;;;;;;;2.05;1.55;;;13.80;99.90;;;;;;5010874;28;20054;-74
2023/05/30 10:33:09;;;;;;;5.03;0.98;;;13.70;99.90;;;;;;5009438;28;20042;-73
2023/05/30 10:35:35;;;;;;;4.47;0.98;;;13.70;99.90;;;;;;4992933;28;20044;-73
2023/05/30 10:38:04;;;;;;;2.47;0.80;;;13.60;99.90;;;;;;5010445;28;20061;-73
2023/05/30 10:41:06;;;;;;;1.52;0.93;;;13.70;99.90;;;;;;5011807;28;20091;-71
2023/05/30 10:44:02;;;;;;;2.00;0.80;;;13.70;99.90;;;;;;5010445;28;20505;-70
2023/05/30 10:46:40;;;;;;;2.25;0.75;;;14.00;99.90;;;;;;5009417;28;20137;-70
2023/05/30 10:49:21;;;;;;;1.58;1.05;;;14.10;99.90;;;;;;5012024;28;20128;-71
2023/05/30 10:52:07;;;;;;;2.78;0.80;;;14.30;99.90;;;;;;5011046;28;20049;-71
2023/05/30 10:54:34;;;;;;;1.67;0.80;;;14.30;99.90;;;;;;5012136;28;20099;-70
2023/05/30 10:57:27;;;;;;;1.75;0.90;;;14.30;99.90;;;;;;5011881;28;20084;-71
2023/05/30 11:00:07;;;;;;;2.28;0.82;;;14.30;99.90;;;;;;5011444;28;20112;-70
2023/05/30 11:02:37;;;;;;;3.28;0.73;;;14.30;99.90;;;;;;5011787;28;20033;-70
2023/05/30 11:05:06;;;;;;;1.85;0.80;;;14.30;99.90;;;;;;5009709;28;20520;-70
2023/05/30 11:07:35;;;;;;;0.93;0.75;;;14.30;99.90;;;;;;5010494;28;20054;-70
2023/05/30 11:10:05;;;;;;;1.00;0.90;;;14.40;99.90;;;;;;5011751;28;20042;-71
2023/05/30 11:12:31;;;;;;;4.43;0.90;;;14.50;99.90;;;;;;5020942;22;20020;-73
2023/05/30 11:14:58;;;;;;;2.13;1.00;;;14.60;99.90;;;;;;4971642;28;20074;-73
2023/05/30 11:17:35;;;;;;;1.83;0.80;;;14.70;99.90;;;;;;4971336;28;20041;-73
2023/05/30 11:20:08;;;;;;;1.77;0.73;;;14.80;99.90;;;;;;4977817;28;20114;-74
2023/05/30 11:22:34;;;;;;;0.93;0.70;;;14.80;99.90;;;;;;4981125;28;20109;-73
2023/05/30 11:25:26;;;;;;;1.17;0.80;;;14.90;99.90;;;;;;4971501;28;20141;-73
2023/05/30 11:28:03;;;;;;;1.50;0.73;;;14.90;99.90;;;;;;4955400;28;20083;-73
2023/05/30 11:30:30;;;;;;;3.15;0.85;;;14.70;99.90;;;;;;4971733;28;20042;-73
2023/05/30 11:32:58;;;;;;;1.10;0.77;;;14.90;99.90;;;;;;4971612;28;20046;-73
2023/05/30 11:35:25;;;;;;;1.77;1.17;;;14.80;99.90;;;;;;4955469;28;20648;-73
2023/05/30 11:37:52;;;;;;;3.53;0.85;;;14.80;99.90;;;;;;4972546;28;20038;-73
2023/05/30 11:40:21;;;;;;;2.00;0.70;;;14.90;99.90;;;;;;4971428;28;20054;-73
2023/05/30 11:42:51;;;;;;;2.92;1.48;;;15.00;99.90;;;;;;4971290;28;20514;-73
2023/05/30 11:45:17;;;;;;;2.42;1.10;;;14.90;99.90;;;;;;4971748;28;20046;-73
2023/05/30 11:47:44;;;;;;;1.77;1.10;;;15.00;99.90;;;;;;4971427;28;20400;-73
2023/05/30 11:50:10;;;;;;;1.90;1.17;;;15.00;99.90;;;;;;4955145;28;20510;-73
2023/05/30 11:52:42;;;;;;;2.63;1.10;;;14.90;99.90;;;;;;4972678;28;20035;-73
2023/05/30 11:55:07;;;;;;;3.05;1.10;;;14.80;99.90;;;;;;4971350;28;20118;-72
2023/05/30 11:57:34;;;;;;;1.80;1.00;;;14.70;99.90;;;;;;4955156;28;20125;-72
2023/05/30 12:00:00;;;;;;;2.78;0.93;;;14.70;99.90;;;;;;4972391;28;20038;-73
2023/05/30 12:02:29;;;;;;;1.33;0.60;;;14.60;99.90;;;;;;4971250;28;20043;-73
2023/05/30 12:05:02;;;;;;;1.27;0.80;;;14.60;99.90;;;;;;4972193;28;20043;-73
2023/05/30 12:07:28;;;;;;;2.10;0.80;;;14.40;99.90;;;;;;4974637;28;20125;-73
2023/05/30 12:09:53;;;;;;;3.95;1.45;;;14.50;99.90;;;;;;4974866;28;20118;-73
2023/05/30 12:12:19;;;;;;;1.85;0.80;;;14.30;99.90;;;;;;4975909;28;20038;-72
2023/05/30 12:14:45;;;;;;;3.63;0.90;;;14.20;99.90;;;;;;4974736;28;20043;-72
2023/05/30 12:17:17;;;;;;;2.22;1.10;;;14.20;99.90;;;;;;4974606;28;20094;-73
2023/05/30 12:19:44;;;;;;;2.38;1.15;;;14.30;99.90;;;;;;4975686;28;20581;-72
2023/05/30 12:22:15;;;;;;;3.40;1.23;;;14.30;99.90;;;;;;4958674;28;20035;-72
2023/05/30 12:24:42;;;;;;;3.10;1.10;;;14.30;99.90;;;;;;4974583;28;20128;-73
2023/05/30 12:27:16;;;;;;;4.82;1.30;;;14.30;99.90;;;;;;4974391;28;20078;-73
2023/05/30 12:29:42;;;;;;;1.52;1.02;;;14.30;99.90;;;;;;4984455;28;20576;-72
2023/05/30 12:32:08;;;;;;;3.65;2.05;;;14.30;99.90;;;;;;4988396;28;20078;-74
2023/05/30 12:34:47;;;;;;;2.95;1.20;;;14.40;99.90;;;;;;4984714;28;20063;-73
2023/05/30 12:37:15;;;;;;;2.92;1.25;;;14.50;99.90;;;;;;4983178;28;20066;-73
2023/05/30 12:39:46;;;;;;;2.70;1.05;;;14.50;99.90;;;;;;4974198;28;20050;-73
2023/05/30 12:42:11;;;;;;;2.47;1.00;;;14.60;99.90;;;;;;4957993;28;20035;-73
2023/05/30 12:44:48;;;;;;;1.90;1.00;;;14.80;99.90;;;;;;4980777;28;20126;-72
2023/05/30 12:47:15;;;;;;;1.65;1.08;;;14.90;99.90;;;;;;4993513;28;20089;-74